Jamestown, Texas
Current Conditions -  °F | °C
As of 11:35 PM on Tuesday 25 Nov 2014 (Local Time) from KJAS Reporting Station
Clear Clear  
Wind Chill:   Ceiling: Unl
Heat Index:   Visibility: 7mi
Dew Point:   Wind: 0mph
Humidity: 99%   Direction: NA
Pressure: 30.23"   Gusts: NA
Location:  31.0751°N, 93.8073°W
Report Text: KJAS 260535Z AUTO 00000KT 7SM CLR 02/02 A3023 RMK AO2 T00220020
Loading
Personal Weather Stations






























Interactive Weather Map New forecast layout! Learn more

10-Day Weather Forecast

Advertisements
Track Severe Weather on mobile